Date,TemperatureHighF,TemperatureAvgF,TemperatureLowF,DewpointHighF,DewpointAvgF,DewpointLowF,HumidityHigh,HumidityAvg,HumidityLow,PressureMaxIn,PressureMinIn,WindSpeedMaxMPH,WindSpeedAvgMPH,GustSpeedMaxMPH,PrecipitationSumIn
2012-8-24,89.1,81.0,71.2,70.9,68.9,43.5,90,69,37,30.06,29.99,9,-18,10,0.00
2012-8-25,87.6,78.6,70.5,73.0,69.6,66.7,94,76,51,30.10,30.02,11,2,14,0.00
2012-8-26,88.3,78.8,68.7,68.4,65.7,61.3,87,66,42,30.13,29.99,11,2,15,0.00
2012-8-27,86.2,77.6,68.9,73.9,69.7,64.6,88,77,65,30.01,29.83,16,4,18,0.00
2012-8-28,91.0,81.9,75.6,76.1,72.9,70.2,91,75,52,29.86,29.78,22,6,24,0.01
2012-8-29,88.0,80.6,76.5,76.5,74.5,72.1,92,82,62,29.89,29.80,15,6,19,0.08
2012-8-30,83.3,77.9,75.6,77.0,74.7,73.0,95,90,78,30.11,29.86,18,4,22,1.07
2012-8-31,89.8,81.5,76.5,77.0,75.1,72.7,95,82,59,30.20,30.09,11,2,11,0.00
2012-9-1,93.4,82.4,74.1,76.6,73.8,69.1,97,77,49,30.20,30.06,7,1,8,0.00
2012-9-2,91.0,80.5,73.2,75.6,73.6,71.6,97,81,56,30.11,29.96,9,2,12,0.00
2012-9-3,88.9,79.4,75.4,77.9,74.6,70.3,95,86,65,30.04,29.91,17,2,17,0.32
2012-9-4,76.8,72.7,70.2,74.3,70.7,68.0,97,94,85,30.00,29.89,11,1,14,4.82
2012-9-5,85.1,76.9,73.0,75.9,73.6,71.8,97,90,72,29.93,29.84,10,2,12,0.24
2012-9-6,88.2,79.7,72.5,77.2,74.1,71.2,96,84,64,29.99,29.89,8,1,10,0.00
2012-9-7,91.6,80.5,72.7,76.5,72.7,69.8,96,79,51,29.98,29.85,9,1,10,0.00
2012-9-8,91.9,79.4,72.9,77.0,73.5,70.9,96,83,55,29.88,29.75,9,1,11,0.04
2012-9-9,82.8,73.5,65.7,71.1,62.9,58.1,93,71,45,30.02,29.87,10,1,17,0.00
2012-9-10,86.5,72.5,60.1,65.8,61.6,56.8,90,71,43,30.09,30.01,8,1,9,0.00
2012-9-11,84.0,74.1,63.1,64.4,61.0,54.9,89,66,38,30.20,30.08,15,2,15,0.00
2012-9-12,84.0,75.8,68.4,66.6,63.5,58.8,84,67,45,30.23,30.13,16,4,18,0.00
2012-9-13,85.3,75.6,67.8,66.9,64.6,60.1,88,70,47,30.23,30.12,16,4,17,0.00
2012-9-14,83.3,75.0,65.8,68.7,65.9,63.7,93,75,55,30.18,30.09,11,2,14,0.00
2012-9-15,88.7,77.7,70.0,71.8,68.4,65.3,87,74,54,30.15,30.04,11,2,13,0.00
2012-9-16,89.1,76.4,69.1,74.1,70.2,67.3,95,83,52,30.08,29.96,10,1,13,0.07
2012-9-17,79.3,73.0,70.3,74.8,71.1,68.9,96,94,85,30.01,29.78,12,2,14,0.83
2012-9-18,81.0,74.0,69.1,72.3,69.8,66.7,97,87,67,29.96,29.73,19,2,24,0.74
2012-9-19,80.4,69.4,61.3,66.7,61.0,56.1,95,77,45,30.08,29.95,9,1,9,0.00
2012-9-20,85.6,70.5,57.6,66.6,60.1,55.2,94,73,44,30.09,30.00,7,0,9,0.00
2012-9-21,86.4,72.8,62.2,70.9,65.3,60.4,97,80,50,30.07,29.97,6,1,8,0.00
2012-9-22,87.3,75.5,64.6,71.2,67.2,63.1,96,78,50,30.09,30.00,8,1,9,0.00
2012-9-23,88.2,74.7,62.4,67.8,60.7,53.2,93,66,33,30.17,30.08,8,1,8,0.00
2012-9-24,81.9,69.3,59.5,60.8,53.3,45.3,85,60,30,30.20,30.09,7,1,10,0.00
2012-9-25,83.8,68.4,52.9,61.9,56.1,48.0,92,68,40,30.18,30.10,10,1,10,0.00
2012-9-26,86.5,74.3,63.3,68.2,64.6,59.7,91,73,50,30.18,30.09,12,2,13,0.00
2012-9-27,87.1,75.0,65.5,73.6,68.3,63.0,93,81,56,30.18,30.05,9,1,10,0.00
2012-9-28,89.4,77.4,66.9,72.9,69.0,65.5,96,77,49,30.11,29.97,8,0,8,0.00
2012-9-29,85.8,75.8,69.8,73.6,70.1,67.6,97,84,57,30.03,29.88,5,0,7,0.04
2012-9-30,78.4,72.5,70.0,74.3,70.7,68.5,97,94,79,29.90,29.69,8,1,11,0.71
2012-10-1,83.3,75.2,67.6,75.9,71.0,63.7,97,87,66,29.71,29.58,15,2,20,1.48
2012-10-2,74.7,66.9,60.3,64.0,61.7,57.7,95,84,62,30.02,29.71,10,2,12,0.00
2012-10-3,77.0,66.4,58.5,63.3,60.4,56.8,96,82,57,30.17,30.02,7,1,8,0.00
2012-10-4,81.9,71.1,62.2,68.7,63.8,60.1,97,79,53,30.25,30.15,9,1,9,0.00
2012-10-5,82.9,72.3,62.8,72.7,67.8,61.3,97,87,67,30.17,30.00,11,1,11,0.00
2012-10-6,87.6,75.5,67.3,72.5,67.3,62.4,97,78,46,30.04,29.91,8,1,8,0.00
2012-10-7,76.8,64.9,57.0,66.0,59.9,53.2,95,85,66,30.10,29.99,9,1,12,0.00
2012-10-8,75.9,62.2,52.0,59.7,54.1,49.5,92,76,54,30.13,30.03,10,1,10,0.00
2012-10-9,75.9,62.2,52.5,61.7,56.3,50.0,96,82,56,30.14,30.05,8,1,9,0.00
2012-10-10,80.1,66.4,55.0,64.4,60.0,54.0,97,82,55,30.18,30.09,8,1,9,0.00
2012-10-11,82.2,68.9,57.4,64.8,61.1,56.3,97,78,50,30.26,30.16,8,1,8,0.00
2012-10-12,86.0,71.9,58.6,68.2,63.1,57.2,96,76,48,30.28,30.18,7,0,7,0.00
2012-10-13,82.9,72.8,64.0,67.1,64.3,61.0,90,76,55,30.27,30.16,11,3,14,0.00
2012-10-14,83.3,72.4,64.0,69.1,65.8,61.9,95,81,57,30.19,30.00,9,2,10,0.00
2012-10-15,81.5,71.3,60.4,70.7,63.9,54.1,97,79,48,30.02,29.89,14,1,14,0.05
2012-10-16,74.1,62.6,50.4,57.2,51.1,45.7,92,69,37,30.01,29.88,11,1,14,0.00
2012-10-17,80.1,67.3,55.9,60.6,55.8,51.3,92,70,40,29.94,29.81,9,1,11,0.00
2012-10-18,77.4,66.7,59.5,66.2,62.5,53.8,96,87,67,29.89,29.77,9,1,9,0.54
2012-10-19,75.7,62.6,51.4,54.5,46.4,38.1,89,60,26,29.93,29.82,15,2,17,0.00
2012-10-20,76.5,60.6,46.8,54.3,48.5,43.9,93,68,37,30.02,29.89,12,1,14,0.00
2012-10-21,78.6,62.4,48.4,54.7,51.3,46.9,96,71,36,30.15,30.02,10,1,10,0.00
2012-10-22,79.9,65.8,54.7,59.0,53.7,49.3,87,67,40,30.19,30.09,11,2,14,0.00
2012-10-23,80.1,66.0,54.1,60.8,56.1,50.2,91,72,46,30.17,30.05,9,1,10,0.00
2012-10-24,80.8,68.7,59.4,65.3,60.4,57.4,94,77,50,30.14,30.02,13,1,14,0.00
2012-10-25,83.1,70.2,60.6,66.9,61.9,58.3,93,77,50,30.04,29.95,11,2,14,0.00
2012-10-26,82.8,71.1,62.8,68.2,62.6,59.7,93,76,48,30.01,29.87,9,1,10,0.00
2012-10-27,66.4,57.4,51.4,62.1,53.6,48.0,92,87,79,29.93,29.85,17,3,17,0.00
2012-10-28,64.4,54.7,49.3,49.3,46.1,39.2,91,74,54,30.00,29.85,17,3,22,0.00
2012-10-29,60.1,50.2,41.7,39.6,36.1,32.2,79,60,40,30.06,29.92,15,3,21,0.00
2012-10-30,63.3,49.9,38.5,37.6,33.4,28.8,78,55,31,29.99,29.89,23,5,25,0.00
2012-10-31,72.3,56.7,42.1,50.5,43.8,37.0,85,64,39,30.04,29.94,17,2,17,0.00
2012-11-1,72.9,59.5,47.7,52.3,45.9,35.8,89,65,32,30.08,29.97,13,1,13,0.00
2012-11-2,80.2,62.8,46.2,61.9,54.3,43.3,94,76,51,30.09,29.98,12,2,15,0.00
2012-11-3,83.3,69.5,57.9,66.6,61.7,57.0,97,79,49,30.13,30.03,9,1,12,0.00
2012-11-4,78.4,65.7,56.8,65.1,58.8,52.9,97,80,50,30.09,29.99,13,1,15,0.00
2012-11-5,72.3,57.6,44.2,53.1,45.8,35.1,93,70,29,30.10,29.92,9,1,11,0.02
2012-11-6,61.2,53.5,48.6,51.8,48.3,46.6,96,83,61,30.01,29.90,11,2,13,0.02
2012-11-7,64.2,53.1,44.2,47.7,42.3,37.6,96,69,39,30.12,29.93,15,2,16,0.00
2012-11-8,65.8,50.4,38.7,45.9,40.9,36.3,95,73,40,30.24,30.11,8,1,9,0.00
2012-11-9,71.6,53.1,37.8,47.7,41.1,33.1,96,69,25,30.32,30.21,6,0,6,0.00
2012-11-10,73.4,57.1,40.5,50.2,44.2,36.9,95,67,29,30.35,30.25,8,1,9,0.00
2012-11-11,76.5,62.1,47.5,56.1,50.9,41.4,88,68,46,30.35,30.22,16,3,18,0.00
2012-11-12,75.6,61.4,50.5,66.0,57.6,47.8,95,88,70,30.30,30.17,11,2,17,0.34
2012-11-13,62.4,48.8,38.8,47.7,36.8,33.1,92,66,36,30.35,30.23,9,1,11,0.02
2012-11-14,57.4,49.8,40.5,52.5,46.0,32.7,95,87,68,30.28,30.22,6,1,8,0.00
2012-11-15,54.1,50.2,45.7,48.9,46.7,43.3,95,88,81,30.28,30.21,9,1,10,0.00
2012-11-16,63.0,51.0,45.3,50.5,45.8,42.1,93,83,57,30.30,30.21,9,1,11,0.00
2012-11-17,63.3,50.4,38.8,45.5,41.0,37.2,96,73,45,30.36,30.27,13,1,17,0.00
2012-11-18,68.2,53.5,41.7,48.2,42.6,35.6,85,68,47,30.34,30.25,10,1,10,0.00
2012-11-19,70.0,54.6,43.2,52.9,46.8,41.5,95,77,47,30.29,30.17,8,1,10,0.00
2012-11-20,68.2,56.3,46.0,56.1,51.1,44.1,96,84,60,30.20,30.09,6,0,9,0.00
2012-11-21,74.1,58.3,46.0,54.1,49.3,44.1,95,75,44,30.19,30.10,9,0,9,0.00
2012-11-22,73.9,58.4,45.3,52.5,48.0,43.3,95,72,40,30.26,30.16,7,0,8,0.00
2012-11-23,73.2,59.9,46.2,55.0,49.6,44.2,96,72,40,30.26,30.11,14,2,16,0.00
2012-11-24,60.3,49.8,36.7,49.5,35.3,27.1,84,60,30,30.24,30.14,10,1,12,0.00
2012-11-25,63.7,45.8,30.6,34.7,29.3,22.8,90,58,22,30.26,30.13,7,1,8,0.00
2012-11-26,67.6,52.6,34.5,51.1,44.0,32.2,93,74,51,30.26,30.15,9,1,13,0.00
2012-11-27,61.2,58.3,51.3,60.1,56.4,49.8,97,93,81,30.25,30.08,10,1,11,0.71
2012-11-28,62.6,50.7,40.3,49.8,42.8,37.8,95,76,42,30.40,30.25,8,1,9,0.00
2012-11-29,61.2,48.0,37.2,50.0,43.9,35.8,96,86,65,30.43,30.30,8,1,10,0.00
2012-11-30,71.1,57.7,48.2,56.5,51.7,45.7,95,82,58,30.33,30.23,9,1,13,0.00
2012-12-1,74.8,59.8,48.6,57.2,51.1,46.8,96,76,43,30.32,30.24,13,2,13,0.00
2012-12-2,75.4,60.6,50.2,61.5,53.3,47.3,95,79,47,30.36,30.24,8,1,10,0.00
2012-12-3,77.9,63.5,52.3,61.2,55.0,50.0,95,76,46,30.30,30.20,12,1,14,0.00
2012-12-4,78.1,63.4,50.5,63.9,56.7,49.1,97,81,47,30.31,30.19,10,1,13,0.00
2012-12-5,74.5,62.4,51.3,59.5,55.9,50.2,97,81,50,30.22,30.08,11,1,11,0.00
2012-12-6,74.3,63.0,54.1,59.2,55.0,50.9,94,77,50,30.09,29.99,12,3,13,0.00
2012-12-7,64.2,61.0,57.4,59.2,57.8,55.6,95,89,83,30.06,29.96,10,3,13,0.00
2012-12-8,74.3,63.5,56.8,66.2,60.5,55.4,97,91,70,30.05,29.95,8,1,8,0.01
2012-12-9,75.0,66.7,62.8,64.2,62.1,60.1,98,86,62,30.11,29.96,11,2,14,0.00
2012-12-10,75.0,65.5,51.8,68.9,62.9,49.6,97,92,74,29.96,29.76,18,2,20,0.08
2012-12-11,51.6,45.9,40.8,49.6,42.3,38.1,94,87,79,30.18,29.91,10,1,12,0.01
2012-12-12,53.1,43.5,36.1,41.5,38.1,34.3,94,82,59,30.25,30.11,6,0,7,0.01
2012-12-13,62.4,48.2,36.3,47.3,42.0,34.5,95,81,54,30.34,30.24,9,1,10,0.00
2012-12-14,64.2,49.5,40.3,49.5,44.8,38.7,96,85,58,30.35,30.17,16,2,17,0.00
2012-12-15,67.5,56.2,45.7,57.4,51.4,44.1,95,85,67,30.21,30.05,11,2,11,0.00
2012-12-16,70.5,62.8,56.5,66.0,60.4,55.0,97,92,82,30.06,29.87,11,2,14,0.15
2012-12-17,63.7,60.4,57.9,62.8,59.1,55.9,97,96,91,29.93,29.73,10,3,14,1.89
2012-12-18,68.0,55.8,44.4,58.8,46.7,38.5,97,75,36,30.06,29.84,12,1,14,0.01
2012-12-19,72.3,56.0,40.5,54.3,47.6,38.8,96,76,39,30.12,30.01,11,2,11,0.00
2012-12-20,73.6,58.5,44.2,69.8,49.6,29.1,96,74,44,30.14,29.75,25,6,34,0.70
2012-12-21,52.9,43.1,35.4,29.5,21.2,13.6,60,43,23,30.32,30.13,23,4,26,0.00
2012-12-22,60.8,42.8,29.1,35.6,24.2,16.9,92,52,22,30.41,30.26,10,1,11,0.00
2012-12-23,56.5,45.2,32.7,43.9,37.7,30.9,95,76,52,30.28,30.07,9,1,10,0.00
2012-12-24,72.1,60.6,49.5,64.2,56.3,42.3,97,86,67,30.07,29.87,15,2,19,0.98
2012-12-25,69.3,63.4,59.4,65.8,62.0,57.0,98,95,88,29.93,29.60,18,4,31,0.91
2012-12-26,59.7,44.5,37.0,56.7,37.5,31.5,90,76,65,30.12,29.63,27,7,31,0.91
2012-12-27,51.3,39.7,34.3,37.4,33.3,30.2,92,79,55,30.19,30.09,11,1,11,0.00
2012-12-28,54.3,46.6,34.2,52.3,41.1,32.0,96,82,63,30.12,29.78,13,3,15,0.44
2012-12-29,53.6,44.1,36.3,52.5,38.3,27.5,97,80,65,30.36,29.78,18,4,23,0.44
2012-12-30,52.3,38.8,28.8,31.8,28.4,25.3,87,68,40,30.51,30.35,8,1,9,0.00
2012-12-31,58.3,48.0,33.1,51.1,41.2,29.1,88,77,66,30.40,30.15,10,1,11,0.00
2013-1-1,74.7,63.2,52.3,65.8,59.1,50.5,97,87,67,30.15,29.96,14,3,18,0.11